SAOU/LUQ METAR and TAF weather

Enter ICAO airport designator
Station Type Date Time Source
SAOU METAR 2020/10/10 20:31 UTC NOAA

SAOU 102031Z 18022G32KT 4000 BLDU FEW040 32/07 Q1009 RMK ESTIMATED WIND


Station Type Date Time Source
SAOU Decoded METAR 2020/10/10 20:31 UTC NOAA

San Luis Aerodrome, Argentina (SAOU) 33-16S 066-21W 713M
Oct 10, 2020 - 04:31 PM EDT / 2020.10.10 2031 UTC
Wind: from the S (180 degrees) at 25 MPH (22 KT) gusting to 37 MPH (32 KT):0
Visibility: 2 mile(s):0
Sky conditions: mostly clear
Weather: blowing widespread dust
Temperature: 89 F (32 C)
Dew Point: 44 F (7 C)
Relative Humidity: 21%
Pressure (altimeter): 29.80 in. Hg (1009 hPa)
ob: SAOU 102031Z 18022G32KT 4000 BLDU FEW040 32/07 Q1009 RMK ESTIMATED WIND
cycle: 20

Station Type Date Time Source
SAOU TAF 2020/10/17 12:12 UTC NOAA

TAF SAOU 171100Z 1712/1812 36010KT CAVOK TX35/1720Z TN18/1808Z
BECMG 1804/1806 36020G30KT

Example: see airport list